createdAt,value
2023-02-28T00:00:53.187Z,963.25
2023-02-28T00:01:53.186Z,963.22
2023-02-28T00:02:53.259Z,963.23
2023-02-28T00:04:53.172Z,963.26
2023-02-28T00:06:53.153Z,963.28
2023-02-28T00:07:53.147Z,963.27
2023-02-28T00:09:53.160Z,963.25
2023-02-28T00:10:53.182Z,963.26
2023-02-28T00:11:53.163Z,963.27
2023-02-28T00:12:53.226Z,963.23
2023-02-28T00:13:53.167Z,963.22
2023-02-28T00:14:53.287Z,963.26
2023-02-28T00:16:53.305Z,963.21
2023-02-28T00:19:53.314Z,963.24
2023-02-28T00:20:53.195Z,963.19
2023-02-28T00:21:53.204Z,963.21
2023-02-28T00:22:53.208Z,963.24
2023-02-28T00:23:53.190Z,963.2
2023-02-28T00:24:53.207Z,963.26
2023-02-28T00:25:53.199Z,963.25
2023-02-28T00:26:53.248Z,963.19
2023-02-28T00:27:53.204Z,963.22
2023-02-28T00:28:53.217Z,963.24
2023-02-28T00:29:53.285Z,963.22
2023-02-28T00:30:54.640Z,963.23
2023-02-28T00:31:53.240Z,963.24
2023-02-28T00:32:53.225Z,963.25
2023-02-28T00:33:53.237Z,963.2
2023-02-28T00:34:53.243Z,963.21
2023-02-28T00:35:53.290Z,963.25
2023-02-28T00:36:53.239Z,963.23
2023-02-28T00:37:53.218Z,963.21
2023-02-28T00:38:53.235Z,963.2
2023-02-28T00:39:53.228Z,963.22
2023-02-28T00:41:53.275Z,963.21
2023-02-28T00:42:53.265Z,963.18
2023-02-28T00:43:53.255Z,963.21
2023-02-28T00:44:53.236Z,963.18
2023-02-28T00:46:53.241Z,963.21
2023-02-28T00:47:53.244Z,963.16
2023-02-28T00:48:53.253Z,963.19
2023-02-28T00:49:53.246Z,963.17
2023-02-28T00:50:53.321Z,963.16
2023-02-28T00:51:53.291Z,963.21
2023-02-28T00:52:53.390Z,963.18
2023-02-28T00:54:53.265Z,963.2
2023-02-28T00:55:53.428Z,963.16
2023-02-28T00:58:53.351Z,963.15
2023-02-28T01:00:53.406Z,963.12
2023-02-28T01:01:53.510Z,963.13
2023-02-28T01:02:53.324Z,963.16
2023-02-28T01:04:53.406Z,963.14
2023-02-28T01:05:53.315Z,963.17
2023-02-28T01:06:53.299Z,963.13
2023-02-28T01:07:53.325Z,963.15
2023-02-28T01:09:53.410Z,963.14
2023-02-28T01:10:53.319Z,963.15
2023-02-28T01:11:53.301Z,963.12
2023-02-28T01:12:53.318Z,963.13
2023-02-28T01:13:53.302Z,963.15
2023-02-28T01:15:53.402Z,963.1
2023-02-28T01:16:53.320Z,963.14
2023-02-28T01:17:53.314Z,963.11
2023-02-28T01:19:53.316Z,963.12
2023-02-28T01:20:53.429Z,963.1
2023-02-28T01:21:53.322Z,963.08
2023-02-28T01:22:53.406Z,963.14
2023-02-28T01:23:53.335Z,963.13
2023-02-28T01:24:53.329Z,963.1
2023-02-28T01:25:53.392Z,963.09
2023-02-28T01:26:53.340Z,963.1
2023-02-28T01:27:53.340Z,963.09
2023-02-28T01:29:53.436Z,963.08
2023-02-28T01:30:53.414Z,963.11
2023-02-28T01:31:53.396Z,963.13
2023-02-28T01:32:53.368Z,963.14
2023-02-28T01:33:53.453Z,963.1
2023-02-28T01:34:53.374Z,963.12
2023-02-28T01:36:53.364Z,963.16
2023-02-28T01:37:54.035Z,963.17
2023-02-28T01:38:53.362Z,963.2
2023-02-28T01:39:53.358Z,963.17
2023-02-28T01:40:53.403Z,963.13
2023-02-28T01:41:53.484Z,963.17
2023-02-28T01:42:53.368Z,963.16
2023-02-28T01:43:53.371Z,963.17
2023-02-28T01:44:53.383Z,963.1
2023-02-28T01:45:53.375Z,963.13
2023-02-28T01:46:53.398Z,963.14
2023-02-28T01:47:53.388Z,963.12
2023-02-28T01:48:53.372Z,963.1
2023-02-28T01:49:53.428Z,963.09
2023-02-28T01:51:53.483Z,963.08
2023-02-28T01:52:53.418Z,963.1
2023-02-28T01:53:53.403Z,963.12
2023-02-28T01:54:53.409Z,963.11
2023-02-28T01:55:53.548Z,963.14
2023-02-28T01:56:53.466Z,963.12
2023-02-28T01:57:53.418Z,963.13
2023-02-28T01:58:53.459Z,963.15
2023-02-28T01:59:53.425Z,963.16
2023-02-28T02:00:53.608Z,963.14
2023-02-28T02:01:53.471Z,963.17
2023-02-28T02:02:53.492Z,963.12
2023-02-28T02:03:53.421Z,963.13
2023-02-28T02:04:53.434Z,963.09
2023-02-28T02:05:53.432Z,963.13
2023-02-28T02:06:53.598Z,963.11
2023-02-28T02:07:53.429Z,963.1
2023-02-28T02:08:53.440Z,963.07
2023-02-28T02:09:53.437Z,963.06
2023-02-28T02:10:53.458Z,963.04
2023-02-28T02:13:53.674Z,962.99
2023-02-28T02:15:53.644Z,962.98
2023-02-28T02:16:53.456Z,962.95
2023-02-28T02:17:53.458Z,962.98
2023-02-28T02:18:53.618Z,962.94
2023-02-28T02:19:53.457Z,962.96
2023-02-28T02:21:53.670Z,962.95
2023-02-28T02:22:53.491Z,962.94
2023-02-28T02:24:53.493Z,962.93
2023-02-28T02:25:53.574Z,962.96
2023-02-28T02:26:53.534Z,962.94
2023-02-28T02:27:53.509Z,962.92
2023-02-28T02:28:53.516Z,962.9
2023-02-28T02:29:53.491Z,962.93
2023-02-28T02:30:53.482Z,962.9
2023-02-28T02:31:53.729Z,962.89
2023-02-28T02:32:53.497Z,962.9
2023-02-28T02:33:53.503Z,962.89
2023-02-28T02:34:53.514Z,962.86
2023-02-28T02:35:53.554Z,962.85
2023-02-28T02:36:53.518Z,962.86
2023-02-28T02:37:53.518Z,962.83
2023-02-28T02:38:53.502Z,962.82
2023-02-28T02:40:53.514Z,962.85
2023-02-28T02:41:53.595Z,962.86
2023-02-28T02:42:53.555Z,962.85
2023-02-28T02:44:53.594Z,962.84
2023-02-28T02:46:53.728Z,962.88
2023-02-28T02:47:53.683Z,962.85
2023-02-28T02:48:53.642Z,962.81
2023-02-28T02:49:53.625Z,962.88
2023-02-28T02:50:53.524Z,962.87
2023-02-28T02:51:53.546Z,962.88
2023-02-28T02:52:53.537Z,962.87
2023-02-28T02:53:53.686Z,962.83
2023-02-28T02:54:55.540Z,962.86
2023-02-28T02:55:53.572Z,962.82
2023-02-28T02:56:53.580Z,962.84
2023-02-28T02:57:53.538Z,962.82
2023-02-28T02:59:53.560Z,962.8
2023-02-28T03:00:53.581Z,962.79
2023-02-28T03:01:53.551Z,962.8
2023-02-28T03:02:53.696Z,962.82
2023-02-28T03:03:53.589Z,962.81
2023-02-28T03:04:53.616Z,962.82
2023-02-28T03:05:53.607Z,962.78
2023-02-28T03:06:53.560Z,962.8
2023-02-28T03:07:53.576Z,962.77
2023-02-28T03:08:53.684Z,962.76
2023-02-28T03:10:53.624Z,962.73
2023-02-28T03:11:53.620Z,962.79
2023-02-28T03:12:53.601Z,962.74
2023-02-28T03:13:53.580Z,962.77
2023-02-28T03:14:53.590Z,962.75
2023-02-28T03:15:53.590Z,962.78
2023-02-28T03:16:53.739Z,962.79
2023-02-28T03:17:53.594Z,962.77
2023-02-28T03:19:53.599Z,962.75
2023-02-28T03:20:53.593Z,962.71
2023-02-28T03:21:53.596Z,962.76
2023-02-28T03:22:53.710Z,962.73
2023-02-28T03:24:53.604Z,962.74
2023-02-28T03:25:53.616Z,962.73
2023-02-28T03:26:53.617Z,962.72
2023-02-28T03:27:53.615Z,962.74
2023-02-28T03:28:53.775Z,962.75
2023-02-28T03:29:53.628Z,962.74
2023-02-28T03:30:53.618Z,962.76
2023-02-28T03:33:53.793Z,962.77
2023-02-28T03:34:53.647Z,962.79
2023-02-28T03:35:53.727Z,962.78
2023-02-28T03:37:53.741Z,962.79
2023-02-28T03:38:53.657Z,962.8
2023-02-28T03:39:53.647Z,962.87
2023-02-28T03:40:53.679Z,962.84
2023-02-28T03:41:53.641Z,962.86
2023-02-28T03:43:53.772Z,962.87
2023-02-28T03:44:53.756Z,962.88
2023-02-28T03:46:53.710Z,962.87
2023-02-28T03:47:53.761Z,962.92
2023-02-28T03:48:53.828Z,962.86
2023-02-28T03:49:53.674Z,962.88
2023-02-28T03:50:53.664Z,962.86
2023-02-28T03:51:53.680Z,962.9
2023-02-28T03:52:53.674Z,962.87
2023-02-28T03:53:53.771Z,962.89
2023-02-28T03:54:53.678Z,962.87
2023-02-28T03:58:53.817Z,962.88
2023-02-28T04:00:53.811Z,962.9
2023-02-28T04:01:53.849Z,962.91
2023-02-28T04:02:53.716Z,962.92
2023-02-28T04:03:53.691Z,962.85
2023-02-28T04:04:53.713Z,962.86
2023-02-28T04:05:53.705Z,962.88
2023-02-28T04:06:53.700Z,962.83
2023-02-28T04:07:53.826Z,962.82
2023-02-28T04:08:53.710Z,962.87
2023-02-28T04:10:53.895Z,962.88
2023-02-28T04:11:53.718Z,962.9
2023-02-28T04:12:53.734Z,962.93
2023-02-28T04:13:53.739Z,962.94
2023-02-28T04:14:53.734Z,962.98
2023-02-28T04:15:53.828Z,962.96
2023-02-28T04:16:53.737Z,963.01
2023-02-28T04:17:53.910Z,963
2023-02-28T04:19:53.751Z,963.01
2023-02-28T04:21:53.746Z,963.03
2023-02-28T04:22:53.755Z,962.99
2023-02-28T04:23:53.745Z,963.03
2023-02-28T04:24:53.753Z,963.04
2023-02-28T04:25:53.820Z,963.08
2023-02-28T04:26:53.771Z,963.09
2023-02-28T04:27:53.874Z,963.11
2023-02-28T04:28:53.761Z,963.13
2023-02-28T04:31:53.892Z,963.11
2023-02-28T04:32:53.775Z,963.15
2023-02-28T04:33:53.771Z,963.13
2023-02-28T04:34:53.868Z,963.1
2023-02-28T04:35:53.844Z,963.12
2023-02-28T04:37:06.312Z,963.08
2023-02-28T04:37:53.797Z,963.14
2023-02-28T04:38:53.766Z,963.08
2023-02-28T04:39:53.793Z,963.09
2023-02-28T04:40:53.808Z,963.07
2023-02-28T04:41:53.786Z,963.08
2023-02-28T04:42:53.789Z,963.05
2023-02-28T04:43:53.787Z,963.06
2023-02-28T04:44:53.805Z,963.07
2023-02-28T04:45:53.969Z,963.03
2023-02-28T04:46:53.806Z,963.05
2023-02-28T04:48:53.857Z,963.04
2023-02-28T04:49:53.870Z,963.07
2023-02-28T04:50:53.810Z,963.08
2023-02-28T04:51:53.840Z,963.05
2023-02-28T04:52:53.807Z,963.09
2023-02-28T04:53:57.867Z,963.08
2023-02-28T04:54:53.813Z,963.11
2023-02-28T04:55:53.821Z,963.13
2023-02-28T04:56:53.818Z,963.11
2023-02-28T04:57:53.862Z,963.13
2023-02-28T04:58:53.827Z,963.07
2023-02-28T04:59:53.831Z,963.13
2023-02-28T05:00:53.826Z,963.1
2023-02-28T05:01:54.036Z,963.13
2023-02-28T05:03:53.838Z,963.15
2023-02-28T05:06:54.014Z,963.19
2023-02-28T05:08:53.898Z,963.22
2023-02-28T05:09:53.864Z,963.23
2023-02-28T05:10:53.856Z,963.19
2023-02-28T05:11:53.861Z,963.22
2023-02-28T05:12:53.852Z,963.19
2023-02-28T05:13:53.865Z,963.22
2023-02-28T05:14:53.851Z,963.23
2023-02-28T05:16:53.954Z,963.27
2023-02-28T05:17:53.880Z,963.28
2023-02-28T05:18:53.924Z,963.27
2023-02-28T05:20:54.106Z,963.28
2023-02-28T05:21:54.016Z,963.3
2023-02-28T05:22:53.890Z,963.32
2023-02-28T05:25:53.935Z,963.33
2023-02-28T05:27:53.977Z,963.28
2023-02-28T05:28:53.905Z,963.3
2023-02-28T05:30:53.949Z,963.33
2023-02-28T05:31:54.143Z,963.29
2023-02-28T05:32:53.907Z,963.33
2023-02-28T05:34:53.901Z,963.32
2023-02-28T05:35:53.971Z,963.28
2023-02-28T05:37:54.020Z,963.33
2023-02-28T05:38:53.927Z,963.32
2023-02-28T05:39:53.903Z,963.35
2023-02-28T05:40:54.123Z,963.33
2023-02-28T05:41:53.924Z,963.32
2023-02-28T05:44:54.014Z,963.35
2023-02-28T05:45:53.989Z,963.32
2023-02-28T05:47:54.016Z,963.33
2023-02-28T05:48:53.994Z,963.35
2023-02-28T05:52:54.119Z,963.36
2023-02-28T05:53:53.959Z,963.39
2023-02-28T05:54:53.945Z,963.43
2023-02-28T05:55:53.953Z,963.4
2023-02-28T05:56:53.956Z,963.45
2023-02-28T05:57:53.956Z,963.47
2023-02-28T05:58:53.945Z,963.45
2023-02-28T05:59:53.957Z,963.49
2023-02-28T06:00:53.979Z,963.42
2023-02-28T06:02:54.129Z,963.45
2023-02-28T06:03:54.102Z,963.44
2023-02-28T06:04:54.087Z,963.5
2023-02-28T06:05:54.033Z,963.36
2023-02-28T06:06:54.117Z,963.45
2023-02-28T06:08:54.028Z,963.36
2023-02-28T06:09:54.123Z,963.47
2023-02-28T06:11:54.203Z,963.48
2023-02-28T06:12:54.238Z,963.5
2023-02-28T06:13:54.186Z,963.48
2023-02-28T06:14:54.148Z,963.5
2023-02-28T06:15:54.112Z,963.48
2023-02-28T06:16:54.145Z,963.51
2023-02-28T06:17:54.165Z,963.53
2023-02-28T06:18:54.114Z,963.46
2023-02-28T06:19:54.002Z,963.48
2023-02-28T06:20:54.040Z,963.54
2023-02-28T06:21:54.022Z,963.58
2023-02-28T06:22:54.018Z,963.59
2023-02-28T06:24:54.105Z,963.61
2023-02-28T06:25:54.083Z,963.59
2023-02-28T06:27:54.032Z,963.65
2023-02-28T06:31:54.114Z,963.68
2023-02-28T06:32:54.100Z,963.71
2023-02-28T06:33:54.033Z,963.74
2023-02-28T06:34:54.053Z,963.77
2023-02-28T06:35:54.115Z,963.81
2023-02-28T06:36:54.066Z,963.8
2023-02-28T06:39:54.104Z,963.83
2023-02-28T06:40:54.152Z,963.76
2023-02-28T06:41:55.955Z,963.81
2023-02-28T06:43:55.395Z,963.82
2023-02-28T06:45:54.139Z,963.84
2023-02-28T06:46:54.241Z,963.86
2023-02-28T06:47:54.075Z,963.87
2023-02-28T06:48:54.073Z,963.86
2023-02-28T06:50:54.188Z,963.87
2023-02-28T06:51:54.097Z,963.86
2023-02-28T06:52:54.139Z,963.9
2023-02-28T06:53:54.082Z,963.92
2023-02-28T06:54:54.092Z,963.87
2023-02-28T06:55:54.102Z,963.88
2023-02-28T06:57:54.281Z,963.87
2023-02-28T06:58:54.099Z,963.89
2023-02-28T06:59:54.107Z,963.92
2023-02-28T07:00:54.109Z,963.94
2023-02-28T07:01:54.146Z,963.98
2023-02-28T07:03:54.213Z,963.97
2023-02-28T07:04:54.344Z,964.03
2023-02-28T07:05:54.214Z,964.02
2023-02-28T07:06:54.108Z,964.04
2023-02-28T07:07:54.256Z,964.05
2023-02-28T07:08:54.123Z,964.06
2023-02-28T07:09:54.112Z,964.03
2023-02-28T07:11:54.212Z,964.06
2023-02-28T07:12:54.184Z,964.08
2023-02-28T07:13:54.121Z,964.07
2023-02-28T07:14:54.137Z,964.08
2023-02-28T07:16:54.338Z,964.12
2023-02-28T07:17:54.145Z,964.11
2023-02-28T07:18:54.146Z,964.13
2023-02-28T07:19:54.262Z,964.15
2023-02-28T07:20:54.145Z,964.12
2023-02-28T07:21:54.149Z,964.13
2023-02-28T07:22:54.155Z,964.16
2023-02-28T07:23:54.239Z,964.14
2023-02-28T07:24:54.169Z,964.15
2023-02-28T07:25:54.180Z,964.16
2023-02-28T07:27:54.381Z,964.11
2023-02-28T07:28:54.178Z,964.15
2023-02-28T07:29:54.185Z,964.13
2023-02-28T07:30:54.201Z,964.11
2023-02-28T07:31:54.310Z,964.17
2023-02-28T07:32:54.160Z,964.16
2023-02-28T07:33:54.172Z,964.14
2023-02-28T07:34:54.181Z,964.15
2023-02-28T07:35:54.209Z,964.18
2023-02-28T07:36:54.341Z,964.16
2023-02-28T07:37:54.189Z,964.2
2023-02-28T07:38:54.209Z,964.19
2023-02-28T07:39:54.188Z,964.18
2023-02-28T07:40:54.204Z,964.2
2023-02-28T07:42:54.321Z,964.18
2023-02-28T07:43:54.193Z,964.17
2023-02-28T07:45:54.285Z,964.14
2023-02-28T07:46:54.264Z,964.12
2023-02-28T07:47:54.405Z,964.15
2023-02-28T07:48:54.260Z,964.16
2023-02-28T07:49:54.314Z,964.17
2023-02-28T07:50:54.211Z,964.14
2023-02-28T07:51:54.330Z,964.15
2023-02-28T07:52:54.232Z,964.17
2023-02-28T07:53:54.394Z,964.15
2023-02-28T07:54:54.340Z,964.19
2023-02-28T07:55:56.599Z,964.2
2023-02-28T07:56:54.237Z,964.21
2023-02-28T07:57:54.363Z,964.23
2023-02-28T07:58:54.333Z,964.25
2023-02-28T07:59:54.254Z,964.28
2023-02-28T08:00:54.386Z,964.3
2023-02-28T08:01:54.288Z,964.34
2023-02-28T08:02:54.267Z,964.33
2023-02-28T08:04:54.267Z,964.34
2023-02-28T08:05:54.259Z,964.32
2023-02-28T08:06:54.279Z,964.33
2023-02-28T08:07:54.295Z,964.3
2023-02-28T08:08:54.394Z,964.31
2023-02-28T08:09:54.280Z,964.34
2023-02-28T08:10:55.801Z,964.36
2023-02-28T08:11:54.395Z,964.31
2023-02-28T08:12:54.277Z,964.33
2023-02-28T08:13:54.286Z,964.38
2023-02-28T08:14:54.288Z,964.36
2023-02-28T08:16:54.377Z,964.37
2023-02-28T08:18:54.397Z,964.38
2023-02-28T08:19:54.302Z,964.4
2023-02-28T08:20:54.300Z,964.41
2023-02-28T08:21:54.310Z,964.43
2023-02-28T08:22:54.394Z,964.42
2023-02-28T08:23:54.307Z,964.37
2023-02-28T08:24:54.401Z,964.35
2023-02-28T08:25:54.306Z,964.31
2023-02-28T08:28:56.097Z,964.27
2023-02-28T08:29:54.429Z,964.28
2023-02-28T08:30:54.393Z,964.3
2023-02-28T08:31:54.407Z,964.32
2023-02-28T08:32:54.534Z,964.38
2023-02-28T08:33:54.325Z,964.31
2023-02-28T08:35:54.504Z,964.32
2023-02-28T08:36:54.420Z,964.37
2023-02-28T08:38:54.470Z,964.35
2023-02-28T08:39:56.330Z,964.32
2023-02-28T08:40:54.329Z,964.36
2023-02-28T08:43:54.443Z,964.34
2023-02-28T08:44:54.353Z,964.29
2023-02-28T08:45:54.442Z,964.34
2023-02-28T08:46:54.341Z,964.32
2023-02-28T08:47:54.349Z,964.3
2023-02-28T08:49:54.357Z,964.31
2023-02-28T08:51:06.290Z,964.27
2023-02-28T08:51:54.668Z,964.29
2023-02-28T08:54:54.494Z,964.25
2023-02-28T08:55:54.376Z,964.28
2023-02-28T08:56:54.381Z,964.27
2023-02-28T08:57:54.363Z,964.31
2023-02-28T08:58:54.481Z,964.35
2023-02-28T08:59:54.468Z,964.39
2023-02-28T09:00:54.451Z,964.41
2023-02-28T09:01:54.365Z,964.36
2023-02-28T09:02:54.381Z,964.37
2023-02-28T09:04:54.499Z,964.42
2023-02-28T09:07:54.581Z,964.44
2023-02-28T09:08:54.414Z,964.47
2023-02-28T09:09:54.440Z,964.51
2023-02-28T09:10:54.400Z,964.5
2023-02-28T09:11:54.564Z,964.55
2023-02-28T09:12:54.421Z,964.54
2023-02-28T09:13:54.559Z,964.55
2023-02-28T09:14:54.413Z,964.59
2023-02-28T09:15:54.453Z,964.57
2023-02-28T09:16:54.502Z,964.61
2023-02-28T09:17:54.472Z,964.58
2023-02-28T09:18:54.405Z,964.59
2023-02-28T09:19:54.407Z,964.61
2023-02-28T09:22:54.488Z,964.59
2023-02-28T09:23:54.472Z,964.57
2023-02-28T09:24:54.432Z,964.62
2023-02-28T09:25:54.447Z,964.63
2023-02-28T09:27:03.448Z,964.62
2023-02-28T09:27:54.444Z,964.64
2023-02-28T09:28:54.454Z,964.6
2023-02-28T09:29:54.454Z,964.62
2023-02-28T09:30:54.491Z,964.65
2023-02-28T09:31:54.462Z,964.64
2023-02-28T09:32:54.449Z,964.65
2023-02-28T09:33:54.598Z,964.62
2023-02-28T09:34:54.533Z,964.64
2023-02-28T09:35:54.490Z,964.61
2023-02-28T09:36:54.489Z,964.65
2023-02-28T09:37:54.577Z,964.61
2023-02-28T09:38:54.459Z,964.56
2023-02-28T09:39:54.475Z,964.59
2023-02-28T09:40:54.528Z,964.61
2023-02-28T09:41:54.466Z,964.64
2023-02-28T09:42:54.567Z,964.6
2023-02-28T09:43:54.504Z,964.59
2023-02-28T09:44:54.647Z,964.64
2023-02-28T09:45:54.576Z,964.63
2023-02-28T09:46:54.485Z,964.68
2023-02-28T09:47:54.485Z,964.73
2023-02-28T09:48:54.476Z,964.71
2023-02-28T09:49:54.477Z,964.8
2023-02-28T09:50:54.496Z,964.78
2023-02-28T09:51:54.496Z,964.79
2023-02-28T09:52:54.484Z,964.82
2023-02-28T09:54:01.231Z,964.81
2023-02-28T09:54:54.592Z,964.84
2023-02-28T09:55:54.565Z,964.87
2023-02-28T09:56:54.549Z,964.93
2023-02-28T09:57:54.496Z,964.89
2023-02-28T09:58:54.508Z,964.91
2023-02-28T09:59:54.634Z,964.86
2023-02-28T10:00:54.509Z,964.79
2023-02-28T10:01:54.596Z,964.75
2023-02-28T10:02:54.639Z,964.8
2023-02-28T10:03:54.512Z,964.81
2023-02-28T10:04:54.718Z,964.78
2023-02-28T10:05:54.557Z,964.77
2023-02-28T10:06:54.532Z,964.78
2023-02-28T10:07:54.525Z,964.79
2023-02-28T10:08:54.649Z,964.76
2023-02-28T10:09:54.534Z,964.77
2023-02-28T10:11:55.254Z,964.84
2023-02-28T10:13:56.372Z,964.87
2023-02-28T10:15:54.577Z,964.84
2023-02-28T10:16:54.553Z,964.87
2023-02-28T10:18:54.591Z,964.93
2023-02-28T10:19:54.565Z,964.97
2023-02-28T10:20:54.562Z,964.96
2023-02-28T10:21:54.565Z,964.98
2023-02-28T10:22:54.588Z,964.93
2023-02-28T10:24:54.583Z,965
2023-02-28T10:25:54.597Z,965.05
2023-02-28T10:26:54.565Z,965.01
2023-02-28T10:28:54.593Z,965.04
2023-02-28T10:29:54.578Z,965.06
2023-02-28T10:30:54.625Z,965.04
2023-02-28T10:31:54.605Z,965.05
2023-02-28T10:33:54.652Z,965.08
2023-02-28T10:34:54.609Z,965.13
2023-02-28T10:35:54.720Z,965.14
2023-02-28T10:36:54.587Z,965.13
2023-02-28T10:37:54.587Z,965.14
2023-02-28T10:38:54.599Z,965.11
2023-02-28T10:39:54.616Z,965.1
2023-02-28T10:40:54.597Z,965.06
2023-02-28T10:41:54.766Z,965.09
2023-02-28T10:42:54.765Z,965.06
2023-02-28T10:43:54.743Z,965.03
2023-02-28T10:44:54.615Z,965.04
2023-02-28T10:45:54.639Z,965.07
2023-02-28T10:46:54.626Z,965.08
2023-02-28T10:47:55.071Z,965.13
2023-02-28T10:48:56.078Z,965.14
2023-02-28T10:50:54.728Z,965.12
2023-02-28T10:51:54.693Z,965.16
2023-02-28T10:52:54.627Z,965.19
2023-02-28T10:54:54.638Z,965.17
2023-02-28T10:56:54.770Z,965.16
2023-02-28T10:57:54.785Z,965.18
2023-02-28T10:59:54.640Z,965.11
2023-02-28T11:00:54.690Z,965.08
2023-02-28T11:01:54.691Z,965.12
2023-02-28T11:02:54.721Z,965.1
2023-02-28T11:03:54.676Z,965.12
2023-02-28T11:04:54.729Z,965.1
2023-02-28T11:05:54.660Z,965.11
2023-02-28T11:06:54.665Z,965.14
2023-02-28T11:07:54.757Z,965.12
2023-02-28T11:08:54.672Z,965.13
2023-02-28T11:09:54.683Z,965.14
2023-02-28T11:10:54.673Z,965.13
2023-02-28T11:11:54.696Z,965.11
2023-02-28T11:12:54.669Z,965.06
2023-02-28T11:13:54.783Z,965.05
2023-02-28T11:14:54.702Z,964.97
2023-02-28T11:15:54.715Z,965.01
2023-02-28T11:16:54.675Z,965.02
2023-02-28T11:18:54.858Z,965.05
2023-02-28T11:19:54.705Z,965.06
2023-02-28T11:20:54.692Z,965.1
2023-02-28T11:21:54.704Z,965.12
2023-02-28T11:22:54.693Z,965.11
2023-02-28T11:24:54.711Z,965.14
2023-02-28T11:25:54.802Z,965.12
2023-02-28T11:26:54.717Z,965.1
2023-02-28T11:27:54.821Z,965.15
2023-02-28T11:28:54.728Z,965.14
2023-02-28T11:29:54.847Z,965.16
2023-02-28T11:30:54.739Z,965.12
2023-02-28T11:31:54.759Z,965.11
2023-02-28T11:32:54.835Z,965.09
2023-02-28T11:33:54.814Z,965.07
2023-02-28T11:34:54.738Z,965.09
2023-02-28T11:35:54.814Z,965.08
2023-02-28T11:36:54.718Z,965.14
2023-02-28T11:37:54.736Z,965.12
2023-02-28T11:38:54.759Z,965.14
2023-02-28T11:39:54.726Z,965.15
2023-02-28T11:40:54.734Z,965.13
2023-02-28T11:41:54.853Z,965.17
2023-02-28T11:42:54.832Z,965.12
2023-02-28T11:43:54.740Z,965.11
2023-02-28T11:45:54.855Z,965.09
2023-02-28T11:46:54.799Z,965.08
2023-02-28T11:47:54.768Z,965.07
2023-02-28T11:48:54.753Z,965.08
2023-02-28T11:49:54.765Z,965.03
2023-02-28T11:50:54.748Z,965
2023-02-28T11:52:54.896Z,965.02
2023-02-28T11:53:54.759Z,965.01
2023-02-28T11:54:54.792Z,965.04
2023-02-28T11:55:54.770Z,965.06
2023-02-28T11:56:54.829Z,965.07
2023-02-28T11:57:54.774Z,965.04
2023-02-28T11:59:55.099Z,965.05
2023-02-28T12:00:54.807Z,965.03
2023-02-28T12:01:54.796Z,965.02
2023-02-28T12:02:54.963Z,965.03
2023-02-28T12:03:54.793Z,965.04
2023-02-28T12:04:54.951Z,965.01
2023-02-28T12:05:54.795Z,965.02
2023-02-28T12:06:54.813Z,965.04
2023-02-28T12:07:54.946Z,965.07
2023-02-28T12:08:54.807Z,965.05
2023-02-28T12:09:54.886Z,965.06
2023-02-28T12:10:54.814Z,965.04
2023-02-28T12:11:54.838Z,965.02
2023-02-28T12:13:54.860Z,965.05
2023-02-28T12:14:54.825Z,965.01
2023-02-28T12:16:54.916Z,965.03
2023-02-28T12:17:54.839Z,965.04
2023-02-28T12:18:55.003Z,965.07
2023-02-28T12:19:54.842Z,965.08
2023-02-28T12:21:54.852Z,965.06
2023-02-28T12:22:54.859Z,965.1
2023-02-28T12:23:54.850Z,965.03
2023-02-28T12:24:54.860Z,964.99
2023-02-28T12:25:54.852Z,964.96
2023-02-28T12:26:54.873Z,964.95
2023-02-28T12:27:54.998Z,964.87
2023-02-28T12:29:54.880Z,964.88
2023-02-28T12:30:54.884Z,964.87
2023-02-28T12:31:54.977Z,964.89
2023-02-28T12:32:54.953Z,964.85
2023-02-28T12:35:54.981Z,964.83
2023-02-28T12:36:54.894Z,964.84
2023-02-28T12:38:55.161Z,964.82
2023-02-28T12:39:54.910Z,964.88
2023-02-28T12:40:54.998Z,964.86
2023-02-28T12:41:54.890Z,964.84
2023-02-28T12:42:54.901Z,964.88
2023-02-28T12:43:55.033Z,964.9
2023-02-28T12:44:54.893Z,964.89
2023-02-28T12:46:55.036Z,964.91
2023-02-28T12:47:54.942Z,964.89
2023-02-28T12:48:54.924Z,964.9
2023-02-28T12:49:54.944Z,964.91
2023-02-28T12:51:54.996Z,964.94
2023-02-28T12:53:54.922Z,964.96
2023-02-28T12:54:54.910Z,964.97
2023-02-28T12:55:54.924Z,964.96
2023-02-28T12:58:54.976Z,964.94
2023-02-28T13:00:54.981Z,964.89
2023-02-28T13:01:54.935Z,964.9
2023-02-28T13:03:54.978Z,964.92
2023-02-28T13:05:54.932Z,964.89
2023-02-28T13:06:54.957Z,964.91
2023-02-28T13:07:54.941Z,964.95
2023-02-28T13:08:54.951Z,964.97
2023-02-28T13:09:55.051Z,964.99
2023-02-28T13:10:54.939Z,964.97
2023-02-28T13:11:55.062Z,964.95
2023-02-28T13:13:55.012Z,964.98
2023-02-28T13:14:54.973Z,964.97
2023-02-28T13:15:54.965Z,964.93
2023-02-28T13:16:54.998Z,964.95
2023-02-28T13:17:55.093Z,964.94
2023-02-28T13:19:55.026Z,964.95
2023-02-28T13:21:55.166Z,964.92
2023-02-28T13:22:55.002Z,964.97
2023-02-28T13:23:55.081Z,964.96
2023-02-28T13:24:55.075Z,964.95
2023-02-28T13:25:55.064Z,964.94
2023-02-28T13:26:55.067Z,964.93
2023-02-28T13:27:55.101Z,964.94
2023-02-28T13:28:55.011Z,964.92
2023-02-28T13:29:55.107Z,964.91
2023-02-28T13:30:55.059Z,964.89
2023-02-28T13:31:55.045Z,964.91
2023-02-28T13:32:55.111Z,964.89
2023-02-28T13:33:55.000Z,964.92
2023-02-28T13:34:55.047Z,964.84
2023-02-28T13:35:55.040Z,964.82
2023-02-28T13:36:55.022Z,964.84
2023-02-28T13:37:55.001Z,964.83
2023-02-28T13:38:55.035Z,964.88
2023-02-28T13:39:55.097Z,964.89
2023-02-28T13:40:55.026Z,964.9
2023-02-28T13:41:55.029Z,964.93
2023-02-28T13:42:55.020Z,964.88
2023-02-28T13:43:55.065Z,964.96
2023-02-28T13:44:55.231Z,964.94
2023-02-28T13:46:55.169Z,964.96
2023-02-28T13:47:55.079Z,964.98
2023-02-28T13:49:55.044Z,964.95
2023-02-28T13:50:55.033Z,964.92
2023-02-28T13:51:55.125Z,964.9
2023-02-28T13:52:55.053Z,964.92
2023-02-28T13:53:55.049Z,964.86
2023-02-28T13:54:55.209Z,964.89
2023-02-28T13:55:55.091Z,964.85
2023-02-28T13:56:55.081Z,964.88
2023-02-28T13:58:55.062Z,964.87
2023-02-28T13:59:55.058Z,964.91
2023-02-28T14:01:55.146Z,964.9
2023-02-28T14:02:55.184Z,964.93
2023-02-28T14:03:55.069Z,964.95
2023-02-28T14:04:55.144Z,964.94
2023-02-28T14:05:55.162Z,964.9
2023-02-28T14:07:55.396Z,964.92
2023-02-28T14:08:55.101Z,964.91
2023-02-28T14:09:55.254Z,964.89
2023-02-28T14:10:55.091Z,964.87
2023-02-28T14:11:55.104Z,964.93
2023-02-28T14:12:55.105Z,964.92
2023-02-28T14:14:55.112Z,964.94
2023-02-28T14:15:55.160Z,964.95
2023-02-28T14:16:55.128Z,964.96
2023-02-28T14:17:55.102Z,964.93
2023-02-28T14:18:55.325Z,964.91
2023-02-28T14:19:55.107Z,964.92
2023-02-28T14:21:55.152Z,964.94
2023-02-28T14:22:55.119Z,965.01
2023-02-28T14:23:55.109Z,965
2023-02-28T14:25:55.205Z,964.98
2023-02-28T14:26:55.156Z,964.95
2023-02-28T14:27:55.144Z,964.99
2023-02-28T14:29:55.202Z,964.98
2023-02-28T14:30:55.284Z,965.01
2023-02-28T14:31:55.234Z,964.96
2023-02-28T14:32:55.140Z,964.97
2023-02-28T14:33:55.132Z,965.03
2023-02-28T14:34:55.145Z,965
2023-02-28T14:35:55.281Z,965.02
2023-02-28T14:36:55.165Z,965.06
2023-02-28T14:37:55.165Z,965.07
2023-02-28T14:38:55.344Z,965.13
2023-02-28T14:39:55.146Z,965.14
2023-02-28T14:40:55.237Z,965.15
2023-02-28T14:41:55.159Z,965.13
2023-02-28T14:42:55.174Z,965.15
2023-02-28T14:43:55.170Z,965.14
2023-02-28T14:44:55.157Z,965.17
2023-02-28T14:46:55.299Z,965.19
2023-02-28T14:47:55.198Z,965.18
2023-02-28T14:48:55.171Z,965.21
2023-02-28T14:49:55.243Z,965.23
2023-02-28T14:50:55.213Z,965.24
2023-02-28T14:51:55.190Z,965.26
2023-02-28T14:52:55.196Z,965.28
2023-02-28T14:53:55.966Z,965.32
2023-02-28T14:54:55.372Z,965.3
2023-02-28T14:55:55.193Z,965.34